createdAt,value
2022-08-26T00:02:02.630Z,6.78
2022-08-26T00:05:06.372Z,6.83
2022-08-26T00:08:11.148Z,6.70
2022-08-26T00:11:15.840Z,6.15
2022-08-26T00:14:31.673Z,6.78
2022-08-26T00:17:34.481Z,7.32
2022-08-26T00:20:37.397Z,6.90
2022-08-26T00:23:41.269Z,6.87
2022-08-26T00:26:44.116Z,6.85
2022-08-26T00:29:48.696Z,6.78
2022-08-26T00:32:51.817Z,6.70
2022-08-26T00:35:54.669Z,7.90
2022-08-26T00:38:58.551Z,7.03
2022-08-26T00:42:01.264Z,6.32
2022-08-26T00:45:11.701Z,6.78
2022-08-26T00:48:18.307Z,6.78
2022-08-26T00:51:24.111Z,7.10
2022-08-26T00:54:30.184Z,7.30
2022-08-26T00:57:35.373Z,7.63
2022-08-26T01:00:40.211Z,7.13
2022-08-26T01:03:45.909Z,6.55
2022-08-26T01:06:50.105Z,7.37
2022-08-26T01:09:53.068Z,6.53
2022-08-26T01:13:01.295Z,6.90
2022-08-26T01:16:11.699Z,7.15
2022-08-26T01:19:20.082Z,7.22
2022-08-26T01:22:26.644Z,6.90
2022-08-26T01:25:35.683Z,7.20
2022-08-26T01:28:40.716Z,6.82
2022-08-26T01:31:46.252Z,7.22
2022-08-26T01:34:49.588Z,7.05
2022-08-26T01:37:56.242Z,7.10
2022-08-26T01:41:02.669Z,7.03
2022-08-26T01:44:07.713Z,7.20
2022-08-26T01:47:14.456Z,7.20
2022-08-26T01:50:27.823Z,7.28
2022-08-26T01:53:33.328Z,7.27
2022-08-26T01:56:37.572Z,7.60
2022-08-26T01:59:40.412Z,7.10
2022-08-26T02:02:44.963Z,7.63
2022-08-26T02:05:51.523Z,7.32
2022-08-26T02:08:58.783Z,8.10
2022-08-26T02:12:03.302Z,7.10
2022-08-26T02:15:12.051Z,7.18
2022-08-26T02:18:14.958Z,7.63
2022-08-26T02:21:19.075Z,7.43
2022-08-26T02:24:27.356Z,7.43
2022-08-26T02:27:34.082Z,7.47
2022-08-26T02:30:37.904Z,7.97
2022-08-26T02:33:43.170Z,7.78
2022-08-26T02:36:46.159Z,7.43
2022-08-26T02:39:49.001Z,7.97
2022-08-26T02:43:01.969Z,7.30
2022-08-26T02:46:04.957Z,7.68
2022-08-26T02:49:08.088Z,7.93
2022-08-26T02:52:11.740Z,7.88
2022-08-26T02:55:14.448Z,7.37
2022-08-26T02:58:18.621Z,7.40
2022-08-26T03:01:25.378Z,7.78
2022-08-26T03:04:28.279Z,7.22
2022-08-26T03:07:31.122Z,7.30
2022-08-26T03:10:34.162Z,7.90
2022-08-26T03:13:38.900Z,7.47
2022-08-26T03:16:41.716Z,7.13
2022-08-26T03:19:44.448Z,8.05
2022-08-26T03:22:48.106Z,8.75
2022-08-26T03:25:54.790Z,7.10
2022-08-26T03:29:17.482Z,7.47
2022-08-26T03:32:20.643Z,7.50
2022-08-26T03:35:23.436Z,7.97
2022-08-26T03:38:26.201Z,7.60
2022-08-26T03:41:29.869Z,7.73
2022-08-26T03:44:33.827Z,7.80
2022-08-26T03:47:37.658Z,7.30
2022-08-26T03:50:41.081Z,7.50
2022-08-26T03:53:46.260Z,7.38
2022-08-26T03:56:49.195Z,7.60
2022-08-26T03:59:53.326Z,7.90
2022-08-26T04:02:56.554Z,8.13
2022-08-26T04:05:59.265Z,7.72
2022-08-26T04:09:05.743Z,7.95
2022-08-26T04:12:09.215Z,7.83
2022-08-26T04:15:17.876Z,8.20
2022-08-26T04:18:20.867Z,8.10
2022-08-26T04:21:24.310Z,7.85
2022-08-26T04:24:28.381Z,7.88
2022-08-26T04:27:31.349Z,8.43
2022-08-26T04:30:38.435Z,8.60
2022-08-26T04:33:41.873Z,8.13
2022-08-26T04:36:45.281Z,7.90
2022-08-26T04:39:52.071Z,7.50
2022-08-26T04:42:54.814Z,7.83
2022-08-26T04:46:00.640Z,7.27
2022-08-26T04:49:08.029Z,7.70
2022-08-26T04:52:10.828Z,8.07
2022-08-26T04:55:13.480Z,7.97
2022-08-26T04:58:17.322Z,8.03
2022-08-26T05:01:21.940Z,7.60
2022-08-26T05:04:26.753Z,7.82
2022-08-26T05:07:29.551Z,7.80
2022-08-26T05:10:35.676Z,8.40
2022-08-26T05:13:39.410Z,8.67
2022-08-26T05:16:43.421Z,7.93
2022-08-26T05:19:51.394Z,8.60
2022-08-26T05:22:55.262Z,8.80
2022-08-26T05:26:00.319Z,8.80
2022-08-26T05:29:03.305Z,8.70
2022-08-26T05:32:08.194Z,8.63
2022-08-26T05:35:13.960Z,9.35
2022-08-26T05:38:22.546Z,9.48
2022-08-26T05:41:34.556Z,9.38
2022-08-26T05:44:55.528Z,8.73
2022-08-26T05:48:00.177Z,8.40
2022-08-26T05:51:06.096Z,8.98
2022-08-26T05:54:08.749Z,8.68
2022-08-26T05:57:13.991Z,9.30
2022-08-26T06:00:17.099Z,9.37
2022-08-26T06:03:21.235Z,8.53
2022-08-26T06:06:29.230Z,8.43
2022-08-26T06:09:34.638Z,9.82
2022-08-26T06:12:37.453Z,8.98
2022-08-26T06:15:48.624Z,9.63
2022-08-26T06:18:54.560Z,9.00
2022-08-26T06:21:57.384Z,9.13
2022-08-26T06:25:17.639Z,9.80
2022-08-26T06:28:20.461Z,9.40
2022-08-26T06:31:23.961Z,8.73
2022-08-26T06:34:30.306Z,9.63
2022-08-26T06:37:33.453Z,9.05
2022-08-26T06:40:43.317Z,9.88
2022-08-26T06:43:47.007Z,9.48
2022-08-26T06:46:50.535Z,9.90
2022-08-26T06:49:55.370Z,8.23
2022-08-26T06:52:58.562Z,8.40
2022-08-26T06:56:04.762Z,8.23
2022-08-26T06:59:08.477Z,8.52
2022-08-26T07:02:13.478Z,8.03
2022-08-26T07:05:19.990Z,8.20
2022-08-26T07:08:23.363Z,8.57
2022-08-26T07:11:26.228Z,8.32
2022-08-26T07:14:31.727Z,8.40
2022-08-26T07:17:34.726Z,8.67
2022-08-26T07:20:42.365Z,8.30
2022-08-26T07:23:46.364Z,7.80
2022-08-26T07:26:49.593Z,7.75
2022-08-26T07:29:57.547Z,8.23
2022-08-26T07:33:00.813Z,8.33
2022-08-26T07:36:05.946Z,7.73
2022-08-26T07:39:08.993Z,7.63
2022-08-26T07:42:14.300Z,7.55
2022-08-26T07:45:17.589Z,7.72
2022-08-26T07:48:21.423Z,7.50
2022-08-26T07:51:26.445Z,7.07
2022-08-26T07:54:29.958Z,7.78
2022-08-26T07:57:32.880Z,8.23
2022-08-26T08:00:37.512Z,6.93
2022-08-26T08:03:41.500Z,6.93
2022-08-26T08:06:46.521Z,7.77
2022-08-26T08:09:51.414Z,7.22
2022-08-26T08:12:54.362Z,6.85
2022-08-26T08:15:57.208Z,7.43
2022-08-26T08:19:00.221Z,6.90
2022-08-26T08:22:05.185Z,6.60
2022-08-26T08:25:20.460Z,7.15
2022-08-26T08:28:23.258Z,7.40
2022-08-26T08:31:54.383Z,6.60
2022-08-26T08:34:51.076Z,6.83
2022-08-26T08:37:56.512Z,6.60
2022-08-26T08:41:00.849Z,7.03
2022-08-26T08:44:11.253Z,6.72
2022-08-26T08:47:21.523Z,7.10
2022-08-26T08:50:29.517Z,6.30
2022-08-26T08:53:37.599Z,6.80
2022-08-26T08:56:43.651Z,5.70
2022-08-26T08:59:53.675Z,6.20
2022-08-26T09:03:02.526Z,5.90
2022-08-26T09:06:17.005Z,6.20
2022-08-26T09:09:24.969Z,6.13
2022-08-26T09:12:32.204Z,6.15
2022-08-26T09:15:47.099Z,5.90
2022-08-26T09:19:14.663Z,6.25
2022-08-26T09:22:31.868Z,6.17
2022-08-26T09:25:46.973Z,5.93
2022-08-26T09:28:56.826Z,6.57
2022-08-26T09:32:19.428Z,5.70
2022-08-26T09:35:27.052Z,5.82
2022-08-26T09:38:34.775Z,5.63
2022-08-26T09:41:39.124Z,6.10
2022-08-26T09:44:56.765Z,5.68
2022-08-26T09:48:04.950Z,5.65
2022-08-26T09:51:26.349Z,6.22
2022-08-26T09:54:30.162Z,5.83
2022-08-26T09:57:37.806Z,5.60
2022-08-26T10:00:43.221Z,5.57
2022-08-26T10:03:47.107Z,5.05
2022-08-26T10:06:58.027Z,6.00
2022-08-26T10:10:01.329Z,6.33
2022-08-26T10:13:10.727Z,6.07
2022-08-26T10:16:20.050Z,6.35
2022-08-26T10:19:29.105Z,6.20
2022-08-26T10:22:51.117Z,6.25
2022-08-26T10:25:59.241Z,6.60
2022-08-26T10:29:11.344Z,5.93
2022-08-26T10:32:22.168Z,6.15
2022-08-26T10:35:27.293Z,6.15
2022-08-26T10:38:34.707Z,6.60
2022-08-26T10:41:41.678Z,5.97
2022-08-26T10:44:50.653Z,6.30
2022-08-26T10:47:57.886Z,6.75
2022-08-26T10:51:03.100Z,6.47
2022-08-26T10:54:12.151Z,6.40
2022-08-26T10:57:23.417Z,6.23
2022-08-26T11:00:51.716Z,6.17
2022-08-26T11:04:00.351Z,6.97
2022-08-26T11:07:52.737Z,7.35
2022-08-26T11:10:59.698Z,7.00
2022-08-26T11:14:05.150Z,6.70
2022-08-26T11:17:11.530Z,6.30
2022-08-26T11:20:34.405Z,6.80
2022-08-26T11:23:45.847Z,3.80
2022-08-26T11:26:56.004Z,3.22
2022-08-26T11:30:05.575Z,2.97
2022-08-26T11:33:10.747Z,2.83
2022-08-26T11:36:40.491Z,2.95
2022-08-26T11:39:54.711Z,2.60
2022-08-26T11:43:00.712Z,2.50
2022-08-26T11:46:06.806Z,2.20
2022-08-26T11:49:14.714Z,2.30
2022-08-26T11:52:20.977Z,2.30
2022-08-26T11:55:24.387Z,3.10
2022-08-26T11:58:29.163Z,3.00
2022-08-26T12:01:35.637Z,3.27
2022-08-26T12:04:44.173Z,3.50
2022-08-26T12:07:50.975Z,3.10
2022-08-26T12:11:04.143Z,3.05
2022-08-26T12:14:09.700Z,3.67
2022-08-26T12:17:14.873Z,3.37
2022-08-26T12:20:31.111Z,3.20
2022-08-26T12:23:43.333Z,3.25
2022-08-26T12:26:46.993Z,3.65
2022-08-26T12:30:02.735Z,3.42
2022-08-26T12:33:22.205Z,3.07
2022-08-26T12:36:31.735Z,3.70
2022-08-26T12:39:36.771Z,3.30
2022-08-26T12:42:45.776Z,2.50
2022-08-26T12:45:57.996Z,2.78
2022-08-26T12:49:03.065Z,3.33
2022-08-26T12:52:10.479Z,3.70
2022-08-26T12:55:21.583Z,3.70
2022-08-26T12:58:28.548Z,5.07
2022-08-26T13:01:39.210Z,4.97
2022-08-26T13:04:44.107Z,4.97
2022-08-26T13:08:12.951Z,4.80
2022-08-26T13:11:20.080Z,4.82
2022-08-26T13:14:25.605Z,4.47
2022-08-26T13:17:30.109Z,4.80
2022-08-26T13:20:34.927Z,4.77
2022-08-26T13:23:42.416Z,5.20
2022-08-26T13:26:47.090Z,4.82
2022-08-26T13:29:50.424Z,5.10
2022-08-26T13:32:58.325Z,4.90
2022-08-26T13:36:01.650Z,4.87
2022-08-26T13:39:07.268Z,4.37
2022-08-26T13:42:10.081Z,4.72
2022-08-26T13:45:13.221Z,5.03
2022-08-26T13:48:20.256Z,4.72
2022-08-26T13:51:25.413Z,5.03
2022-08-26T13:54:29.446Z,5.40
2022-08-26T13:57:32.231Z,5.47
2022-08-26T14:00:35.334Z,5.93
2022-08-26T14:03:38.399Z,5.43
2022-08-26T14:06:44.546Z,4.97
2022-08-26T14:09:49.472Z,5.23
2022-08-26T14:12:53.999Z,5.32
2022-08-26T14:15:58.720Z,4.82
2022-08-26T14:19:02.782Z,4.43
2022-08-26T14:22:05.708Z,4.43
2022-08-26T14:25:12.416Z,4.60
2022-08-26T14:28:15.384Z,4.93
2022-08-26T14:31:18.865Z,4.57
2022-08-26T14:34:21.597Z,5.38
2022-08-26T14:37:24.577Z,5.37
2022-08-26T14:40:32.276Z,6.00
2022-08-26T14:43:44.409Z,5.30
2022-08-26T14:46:49.589Z,4.40
2022-08-26T14:49:52.533Z,5.95
2022-08-26T14:53:13.115Z,5.70
2022-08-26T14:56:17.785Z,4.70
2022-08-26T14:59:23.160Z,5.57
2022-08-26T15:02:33.248Z,5.10
2022-08-26T15:05:36.800Z,4.90
2022-08-26T15:08:40.067Z,5.10
2022-08-26T15:11:44.670Z,4.57
2022-08-26T15:14:50.360Z,4.70
2022-08-26T15:17:53.197Z,4.20
2022-08-26T15:20:55.862Z,4.78
2022-08-26T15:23:59.505Z,5.20
2022-08-26T15:27:03.593Z,4.80
2022-08-26T15:30:09.054Z,5.18
2022-08-26T15:33:15.105Z,4.50
2022-08-26T15:36:18.365Z,4.80
2022-08-26T15:39:21.963Z,5.10
2022-08-26T15:42:26.156Z,4.37
2022-08-26T15:45:29.040Z,5.15
2022-08-26T15:48:31.941Z,5.20
2022-08-26T15:51:45.680Z,4.70
2022-08-26T15:54:48.925Z,5.00
2022-08-26T15:57:54.574Z,4.90
2022-08-26T16:00:57.786Z,5.00
2022-08-26T16:04:00.887Z,4.80
2022-08-26T16:07:04.260Z,4.90
2022-08-26T16:10:08.068Z,4.77
2022-08-26T16:13:14.760Z,4.33
2022-08-26T16:16:18.286Z,3.85
2022-08-26T16:19:21.440Z,4.20
2022-08-26T16:22:24.319Z,3.92
2022-08-26T16:25:32.051Z,4.00
2022-08-26T16:28:36.388Z,3.93
2022-08-26T16:31:41.709Z,4.20
2022-08-26T16:34:56.532Z,4.13
2022-08-26T16:37:59.716Z,4.40
2022-08-26T16:41:02.985Z,4.87
2022-08-26T16:44:08.613Z,4.70
2022-08-26T16:47:13.269Z,4.43
2022-08-26T16:50:16.485Z,4.55
2022-08-26T16:53:19.643Z,4.72
2022-08-26T16:56:24.126Z,5.40
2022-08-26T16:59:37.803Z,4.47
2022-08-26T17:02:40.633Z,4.97
2022-08-26T17:05:43.481Z,4.68
2022-08-26T17:08:46.285Z,4.32
2022-08-26T17:11:49.709Z,4.53
2022-08-26T17:14:53.785Z,4.30
2022-08-26T17:17:56.931Z,4.18
2022-08-26T17:21:03.132Z,4.88
2022-08-26T17:24:06.841Z,4.60
2022-08-26T17:27:09.786Z,4.97
2022-08-26T17:30:14.712Z,5.23
2022-08-26T17:33:18.655Z,4.95
2022-08-26T17:36:27.885Z,4.95
2022-08-26T17:39:31.268Z,4.50
2022-08-26T17:42:34.020Z,4.60
2022-08-26T17:45:40.406Z,4.87
2022-08-26T17:48:43.350Z,4.60
2022-08-26T17:51:46.514Z,4.82
2022-08-26T17:54:49.572Z,4.22
2022-08-26T17:57:53.178Z,4.63
2022-08-26T18:00:57.889Z,4.23
2022-08-26T18:04:00.997Z,4.57
2022-08-26T18:07:04.014Z,4.82
2022-08-26T18:10:12.520Z,4.50
2022-08-26T18:13:16.102Z,4.80
2022-08-26T18:16:21.472Z,4.50
2022-08-26T18:19:24.283Z,4.43
2022-08-26T18:22:27.131Z,5.07
2022-08-26T18:25:29.964Z,5.20
2022-08-26T18:28:34.804Z,5.63
2022-08-26T18:31:39.045Z,5.43
2022-08-26T18:34:41.839Z,5.25
2022-08-26T18:37:45.277Z,5.10
2022-08-26T18:40:47.919Z,4.90
2022-08-26T18:43:53.138Z,5.60
2022-08-26T18:46:57.235Z,5.67
2022-08-26T18:50:01.039Z,5.65
2022-08-26T18:53:03.898Z,5.60
2022-08-26T18:56:07.921Z,5.60
2022-08-26T18:59:11.153Z,5.80
2022-08-26T19:02:15.286Z,5.77
2022-08-26T19:05:18.214Z,5.53
2022-08-26T19:08:20.877Z,5.60
2022-08-26T19:11:32.511Z,5.97
2022-08-26T19:14:40.235Z,6.27
2022-08-26T19:17:44.268Z,6.27
2022-08-26T19:20:48.264Z,6.70
2022-08-26T19:23:51.467Z,6.53
2022-08-26T19:26:58.270Z,6.20
2022-08-26T19:30:01.219Z,6.47
2022-08-26T19:33:05.846Z,5.83
2022-08-26T19:36:14.977Z,6.47
2022-08-26T19:39:17.808Z,6.63
2022-08-26T19:42:20.632Z,7.03
2022-08-26T19:45:25.151Z,6.30
2022-08-26T19:48:29.785Z,6.20
2022-08-26T19:51:34.853Z,6.35
2022-08-26T19:54:37.776Z,6.63
2022-08-26T19:57:40.883Z,6.05
2022-08-26T20:00:43.728Z,6.40
2022-08-26T20:03:48.215Z,6.33
2022-08-26T20:06:51.788Z,6.97
2022-08-26T20:10:00.647Z,7.07
2022-08-26T20:13:03.373Z,6.72
2022-08-26T20:16:07.264Z,7.03
2022-08-26T20:19:29.236Z,6.43
2022-08-26T20:22:32.831Z,6.78
2022-08-26T20:25:35.729Z,6.60
2022-08-26T20:28:38.822Z,7.00
2022-08-26T20:31:41.942Z,7.23
2022-08-26T20:34:46.136Z,7.10
2022-08-26T20:37:48.838Z,6.95
2022-08-26T20:40:51.705Z,8.10
2022-08-26T20:43:59.267Z,6.63
2022-08-26T20:47:02.115Z,7.37
2022-08-26T20:50:08.215Z,7.17
2022-08-26T20:53:10.922Z,7.88
2022-08-26T20:56:15.564Z,7.25
2022-08-26T20:59:18.871Z,7.57
2022-08-26T21:02:21.692Z,6.83
2022-08-26T21:05:25.787Z,6.80
2022-08-26T21:08:28.596Z,7.20
2022-08-26T21:11:31.338Z,6.80
2022-08-26T21:14:34.197Z,7.07
2022-08-26T21:17:37.514Z,7.13
2022-08-26T21:20:41.714Z,7.10
2022-08-26T21:23:44.538Z,7.13
2022-08-26T21:26:48.749Z,7.20
2022-08-26T21:29:51.994Z,7.03
2022-08-26T21:32:57.315Z,7.47
2022-08-26T21:36:01.745Z,7.28
2022-08-26T21:39:09.290Z,6.90
2022-08-26T21:42:14.228Z,6.97
2022-08-26T21:45:17.575Z,7.10
2022-08-26T21:48:20.378Z,6.78
2022-08-26T21:51:27.455Z,6.45
2022-08-26T21:54:30.147Z,6.70
2022-08-26T21:57:34.585Z,6.50
2022-08-26T22:00:37.321Z,6.68
2022-08-26T22:03:46.762Z,7.07
2022-08-26T22:06:54.282Z,6.78
2022-08-26T22:09:57.291Z,6.47
2022-08-26T22:12:59.936Z,6.90
2022-08-26T22:16:03.089Z,7.43
2022-08-26T22:19:05.794Z,7.53
2022-08-26T22:22:10.002Z,7.65
2022-08-26T22:25:12.883Z,7.83
2022-08-26T22:28:16.000Z,6.43
2022-08-26T22:31:18.725Z,6.60
2022-08-26T22:34:23.214Z,6.95
2022-08-26T22:37:27.391Z,7.13
2022-08-26T22:40:33.467Z,7.27
2022-08-26T22:43:38.301Z,6.67
2022-08-26T22:46:42.881Z,7.25
2022-08-26T22:49:47.134Z,6.78
2022-08-26T22:52:51.223Z,6.55
2022-08-26T22:55:54.404Z,8.55
2022-08-26T22:58:57.093Z,7.20
2022-08-26T23:02:00.763Z,7.72
2022-08-26T23:05:03.515Z,7.18
2022-08-26T23:08:08.740Z,7.50
2022-08-26T23:11:13.325Z,7.72
2022-08-26T23:14:16.513Z,7.87
2022-08-26T23:17:19.207Z,8.13
2022-08-26T23:20:22.591Z,7.82
2022-08-26T23:23:27.892Z,8.00
2022-08-26T23:26:31.882Z,8.32
2022-08-26T23:29:35.708Z,7.23
2022-08-26T23:32:38.820Z,8.52
2022-08-26T23:35:41.907Z,7.88
2022-08-26T23:38:52.339Z,7.78
2022-08-26T23:41:57.128Z,9.65
2022-08-26T23:45:01.128Z,7.43
2022-08-26T23:48:04.648Z,7.20
2022-08-26T23:51:24.984Z,7.20
2022-08-26T23:54:29.206Z,6.72
2022-08-26T23:57:31.871Z,7.25
